createdAt,value
2022-12-11T00:00:47.795Z,-0.22
2022-12-11T00:03:16.466Z,-0.15
2022-12-11T00:05:44.778Z,-0.14
2022-12-11T00:08:12.536Z,-0.18
2022-12-11T00:10:39.157Z,-0.07
2022-12-11T00:13:05.782Z,-0.19
2022-12-11T00:15:32.424Z,-0.06
2022-12-11T00:17:59.049Z,-0.18
2022-12-11T00:20:25.611Z,-0.14
2022-12-11T00:22:52.109Z,-0.17
2022-12-11T00:25:18.687Z,-0.14
2022-12-11T00:27:47.161Z,-0.15
2022-12-11T00:30:14.601Z,-0.16
2022-12-11T00:32:41.155Z,-0.19
2022-12-11T00:35:08.512Z,-0.20
2022-12-11T00:37:35.510Z,-0.09
2022-12-11T00:40:02.142Z,-0.13
2022-12-11T00:42:28.962Z,-0.07
2022-12-11T00:44:56.388Z,-0.13
2022-12-11T00:47:22.933Z,-0.12
2022-12-11T00:49:50.197Z,-0.12
2022-12-11T00:52:17.948Z,0.00
2022-12-11T00:54:44.953Z,-0.16
2022-12-11T00:57:11.479Z,-0.02
2022-12-11T00:59:38.640Z,-0.07
2022-12-11T01:02:05.190Z,0.02
2022-12-11T01:04:31.753Z,-0.08
2022-12-11T01:06:58.378Z,-0.11
2022-12-11T01:09:43.702Z,-0.06
2022-12-11T01:12:10.280Z,-0.08
2022-12-11T01:14:36.830Z,-0.04
2022-12-11T01:17:03.598Z,0.05
2022-12-11T01:19:30.186Z,-0.04
2022-12-11T01:21:56.758Z,0.07
2022-12-11T01:24:23.288Z,-0.07
2022-12-11T01:26:49.789Z,-0.04
2022-12-11T01:29:16.369Z,-0.03
2022-12-11T01:31:42.949Z,-0.02
2022-12-11T01:34:09.458Z,-0.03
2022-12-11T01:36:36.034Z,-0.05
2022-12-11T01:39:02.589Z,0.03
2022-12-11T01:41:29.164Z,0.08
2022-12-11T01:44:15.812Z,0.04
2022-12-11T01:46:43.179Z,0.00
2022-12-11T01:49:12.918Z,-0.03
2022-12-11T01:51:45.914Z,-0.02
2022-12-11T01:54:14.819Z,0.00
2022-12-11T01:56:43.224Z,0.10
2022-12-11T01:59:11.088Z,-0.01
2022-12-11T02:01:45.199Z,0.13
2022-12-11T02:04:15.636Z,0.15
2022-12-11T02:06:45.185Z,0.16
2022-12-11T02:09:18.861Z,-0.06
2022-12-11T02:12:03.100Z,0.00
2022-12-11T02:14:32.553Z,0.00
2022-12-11T02:17:06.838Z,0.02
2022-12-11T02:19:48.238Z,0.05
2022-12-11T02:22:28.647Z,0.10
2022-12-11T02:25:09.081Z,0.08
2022-12-11T02:27:45.972Z,0.18
2022-12-11T02:30:16.227Z,0.07
2022-12-11T02:32:53.611Z,-0.02
2022-12-11T02:35:30.251Z,0.09
2022-12-11T02:38:02.656Z,0.18
2022-12-11T02:40:32.435Z,0.19
2022-12-11T02:43:03.025Z,0.09
2022-12-11T02:45:31.156Z,0.07
2022-12-11T02:48:00.978Z,0.08
2022-12-11T02:50:28.859Z,0.05
2022-12-11T02:52:57.527Z,0.17
2022-12-11T02:55:26.323Z,0.11
2022-12-11T02:58:15.811Z,0.21
2022-12-11T03:00:42.376Z,0.08
2022-12-11T03:03:08.946Z,0.19
2022-12-11T03:05:35.610Z,0.11
2022-12-11T03:08:02.380Z,0.09
2022-12-11T03:10:29.019Z,0.19
2022-12-11T03:12:58.981Z,0.22
2022-12-11T03:15:41.413Z,0.22
2022-12-11T03:18:49.976Z,0.11
2022-12-11T03:21:34.954Z,0.10
2022-12-11T03:24:48.854Z,0.17
2022-12-11T03:27:36.585Z,0.14
2022-12-11T03:30:11.567Z,0.21
2022-12-11T03:32:49.263Z,0.22
2022-12-11T03:35:36.810Z,0.22
2022-12-11T03:38:08.757Z,0.13
2022-12-11T03:40:36.855Z,0.24
2022-12-11T03:43:04.873Z,0.11
2022-12-11T03:45:33.520Z,0.10
2022-12-11T03:48:02.632Z,0.10
2022-12-11T03:50:32.067Z,0.18
2022-12-11T03:53:00.196Z,0.08
2022-12-11T03:55:28.150Z,0.09
2022-12-11T03:57:54.797Z,0.08
2022-12-11T04:00:21.660Z,0.15
2022-12-11T04:03:13.010Z,0.08
2022-12-11T04:05:45.415Z,0.09
2022-12-11T04:08:12.380Z,0.16
2022-12-11T04:10:40.406Z,0.08
2022-12-11T04:13:07.819Z,0.09
2022-12-11T04:15:34.853Z,0.08
2022-12-11T04:18:30.551Z,0.16
2022-12-11T04:21:15.513Z,0.16
2022-12-11T04:24:00.814Z,0.19
2022-12-11T04:26:27.370Z,0.17
2022-12-11T04:28:54.316Z,0.08
2022-12-11T04:31:22.433Z,0.08
2022-12-11T04:33:49.293Z,0.07
2022-12-11T04:36:15.984Z,0.16
2022-12-11T04:38:42.531Z,0.07
2022-12-11T04:41:12.594Z,0.06
2022-12-11T04:43:39.869Z,0.13
2022-12-11T04:46:12.605Z,0.17
2022-12-11T04:48:40.039Z,0.08
2022-12-11T04:51:07.688Z,0.06
2022-12-11T04:53:35.128Z,0.17
2022-12-11T04:56:01.773Z,0.17
2022-12-11T04:58:28.447Z,0.08
2022-12-11T05:00:54.954Z,0.07
2022-12-11T05:03:21.466Z,0.06
2022-12-11T05:05:52.636Z,0.16
2022-12-11T05:08:20.717Z,0.19
2022-12-11T05:10:58.440Z,0.11
2022-12-11T05:13:25.296Z,0.10
2022-12-11T05:15:51.874Z,0.09
2022-12-11T05:18:18.441Z,0.09
2022-12-11T05:20:45.129Z,0.10
2022-12-11T05:23:11.670Z,0.09
2022-12-11T05:25:38.183Z,0.17
2022-12-11T05:28:04.815Z,0.07
2022-12-11T05:30:32.638Z,0.10
2022-12-11T05:32:59.184Z,0.08
2022-12-11T05:35:25.723Z,0.06
2022-12-11T05:37:52.301Z,0.08
2022-12-11T05:40:18.856Z,0.07
2022-12-11T05:42:45.423Z,0.08
2022-12-11T05:45:12.195Z,0.18
2022-12-11T05:47:39.090Z,0.10
2022-12-11T05:50:05.991Z,0.10
2022-12-11T05:52:33.057Z,0.07
2022-12-11T05:54:59.715Z,0.20
2022-12-11T05:57:26.226Z,0.21
2022-12-11T05:59:52.723Z,0.11
2022-12-11T06:02:19.423Z,0.12
2022-12-11T06:04:46.056Z,0.05
2022-12-11T06:07:14.036Z,0.10
2022-12-11T06:09:40.533Z,0.09
2022-12-11T06:12:07.068Z,0.21
2022-12-11T06:14:33.652Z,0.22
2022-12-11T06:17:01.478Z,0.13
2022-12-11T06:19:31.901Z,0.19
2022-12-11T06:22:01.619Z,0.14
2022-12-11T06:24:28.121Z,0.11
2022-12-11T06:26:54.623Z,0.12
2022-12-11T06:29:21.137Z,0.12
2022-12-11T06:31:47.719Z,0.12
2022-12-11T06:34:14.234Z,0.16
2022-12-11T06:36:40.772Z,0.15
2022-12-11T06:39:07.266Z,0.10
2022-12-11T06:41:33.874Z,0.16
2022-12-11T06:44:00.391Z,0.25
2022-12-11T06:46:26.954Z,0.16
2022-12-11T06:48:53.538Z,0.16
2022-12-11T06:51:22.465Z,0.17
2022-12-11T06:53:53.761Z,0.15
2022-12-11T06:56:21.526Z,0.27
2022-12-11T06:58:48.333Z,0.30
2022-12-11T07:01:20.990Z,0.32
2022-12-11T07:03:48.275Z,0.19
2022-12-11T07:06:14.925Z,0.19
2022-12-11T07:08:41.582Z,0.19
2022-12-11T07:11:14.601Z,0.19
2022-12-11T07:13:42.179Z,0.19
2022-12-11T07:16:11.090Z,0.15
2022-12-11T07:18:42.517Z,0.21
2022-12-11T07:21:11.999Z,0.31
2022-12-11T07:23:39.218Z,0.21
2022-12-11T07:26:09.698Z,0.22
2022-12-11T07:28:36.528Z,0.17
2022-12-11T07:31:14.887Z,0.33
2022-12-11T07:33:42.610Z,0.23
2022-12-11T07:36:11.042Z,0.34
2022-12-11T07:38:37.730Z,0.25
2022-12-11T07:41:06.263Z,0.22
2022-12-11T07:43:33.819Z,0.35
2022-12-11T07:46:05.632Z,0.25
2022-12-11T07:48:32.375Z,0.27
2022-12-11T07:51:15.050Z,0.26
2022-12-11T07:53:48.472Z,0.24
2022-12-11T07:56:16.215Z,0.25
2022-12-11T07:58:43.125Z,0.23
2022-12-11T08:01:24.206Z,0.26
2022-12-11T08:03:50.864Z,0.34
2022-12-11T08:06:18.038Z,0.20
2022-12-11T08:08:44.973Z,0.24
2022-12-11T08:11:14.230Z,0.38
2022-12-11T08:13:41.519Z,0.28
2022-12-11T08:16:10.513Z,0.28
2022-12-11T08:18:37.855Z,0.25
2022-12-11T08:21:08.015Z,0.39
2022-12-11T08:23:34.998Z,0.28
2022-12-11T08:26:10.768Z,0.30
2022-12-11T08:28:37.488Z,0.42
2022-12-11T08:31:05.893Z,0.31
2022-12-11T08:33:32.727Z,0.32
2022-12-11T08:36:02.722Z,0.31
2022-12-11T08:38:29.331Z,0.27
2022-12-11T08:40:55.912Z,0.43
2022-12-11T08:43:22.498Z,0.31
2022-12-11T08:45:49.377Z,0.32
2022-12-11T08:48:16.260Z,0.28
2022-12-11T08:50:43.269Z,0.33
2022-12-11T08:53:09.805Z,0.33
2022-12-11T08:55:36.347Z,0.32
2022-12-11T08:58:03.180Z,0.43
2022-12-11T09:00:29.659Z,0.47
2022-12-11T09:02:56.195Z,0.37
2022-12-11T09:05:22.753Z,0.35
2022-12-11T09:07:49.330Z,0.48
2022-12-11T09:10:15.912Z,0.50
2022-12-11T09:12:42.736Z,0.51
2022-12-11T09:15:09.860Z,0.42
2022-12-11T09:17:36.662Z,0.33
2022-12-11T09:20:04.089Z,0.51
2022-12-11T09:22:32.984Z,0.40
2022-12-11T09:24:59.602Z,0.53
2022-12-11T09:27:26.102Z,0.54
2022-12-11T09:29:52.637Z,0.45
2022-12-11T09:32:19.139Z,0.39
2022-12-11T09:34:45.843Z,0.44
2022-12-11T09:37:12.435Z,0.40
2022-12-11T09:39:38.964Z,0.41
2022-12-11T09:42:15.545Z,0.41
2022-12-11T09:44:53.487Z,0.42
2022-12-11T09:47:42.516Z,0.44
2022-12-11T09:50:09.036Z,0.41
2022-12-11T09:52:58.250Z,0.41
2022-12-11T09:55:29.534Z,0.54
2022-12-11T09:58:25.601Z,0.56
2022-12-11T10:01:07.569Z,0.47
2022-12-11T10:03:55.732Z,0.45
2022-12-11T10:06:34.363Z,0.45
2022-12-11T10:09:08.820Z,0.44
2022-12-11T10:12:01.133Z,0.44
2022-12-11T10:14:33.602Z,0.56
2022-12-11T10:17:07.227Z,0.46
2022-12-11T10:19:34.790Z,0.43
2022-12-11T10:22:02.363Z,0.41
2022-12-11T10:25:09.961Z,0.55
2022-12-11T10:27:34.823Z,0.48
2022-12-11T10:30:24.486Z,0.45
2022-12-11T10:32:52.739Z,0.46
2022-12-11T10:35:31.161Z,0.48
2022-12-11T10:38:11.693Z,0.48
2022-12-11T10:40:42.804Z,0.47
2022-12-11T10:43:09.353Z,0.60
2022-12-11T10:45:36.189Z,0.62
2022-12-11T10:48:13.152Z,0.65
2022-12-11T10:50:40.030Z,0.52
2022-12-11T10:53:06.877Z,0.53
2022-12-11T10:55:45.197Z,0.54
2022-12-11T10:58:18.702Z,0.65
2022-12-11T11:00:45.787Z,0.66
2022-12-11T11:03:24.716Z,0.57
2022-12-11T11:06:22.221Z,0.68
2022-12-11T11:08:54.579Z,0.71
2022-12-11T11:11:27.233Z,0.59
2022-12-11T11:14:13.191Z,0.64
2022-12-11T11:16:42.332Z,0.57
2022-12-11T11:19:19.710Z,0.59
2022-12-11T11:21:52.556Z,0.58
2022-12-11T11:24:34.971Z,0.60
2022-12-11T11:27:13.244Z,0.56
2022-12-11T11:29:41.996Z,0.56
2022-12-11T11:32:20.263Z,0.69
2022-12-11T11:34:46.819Z,0.56
2022-12-11T11:37:30.037Z,0.59
2022-12-11T11:40:04.211Z,0.60
2022-12-11T11:42:52.078Z,0.70
2022-12-11T11:45:33.448Z,0.75
2022-12-11T11:48:15.384Z,0.76
2022-12-11T11:50:46.303Z,0.66
2022-12-11T11:53:21.492Z,0.65
2022-12-11T11:56:12.575Z,0.78
2022-12-11T11:58:44.538Z,0.65
2022-12-11T12:01:18.808Z,0.82
2022-12-11T12:03:47.490Z,0.68
2022-12-11T12:06:34.797Z,0.69
2022-12-11T12:09:14.934Z,0.74
2022-12-11T12:11:49.505Z,0.74
2022-12-11T12:14:51.244Z,0.73
2022-12-11T12:17:42.796Z,0.74
2022-12-11T12:20:29.546Z,0.87
2022-12-11T12:23:07.303Z,0.78
2022-12-11T12:25:53.247Z,0.82
2022-12-11T12:28:31.920Z,0.78
2022-12-11T12:31:23.118Z,0.82
2022-12-11T12:34:26.798Z,0.90
2022-12-11T12:37:17.357Z,0.93
2022-12-11T12:39:52.852Z,0.85
2022-12-11T12:42:53.374Z,0.84
2022-12-11T12:45:32.061Z,0.81
2022-12-11T12:47:58.647Z,0.80
2022-12-11T12:50:29.420Z,0.83
2022-12-11T12:52:56.972Z,0.94
2022-12-11T12:55:27.135Z,0.86
2022-12-11T12:57:57.763Z,0.85
2022-12-11T13:00:34.526Z,0.85
2022-12-11T13:03:13.360Z,0.99
2022-12-11T13:05:43.176Z,0.92
2022-12-11T13:08:11.552Z,0.84
2022-12-11T13:10:41.787Z,0.89
2022-12-11T13:13:31.130Z,0.93
2022-12-11T13:16:24.378Z,0.89
2022-12-11T13:18:51.375Z,0.85
2022-12-11T13:21:32.019Z,0.90
2022-12-11T13:24:13.598Z,0.91
2022-12-11T13:26:40.736Z,0.90
2022-12-11T13:29:37.673Z,0.91
2022-12-11T13:32:10.257Z,0.89
2022-12-11T13:34:40.489Z,0.90
2022-12-11T13:37:20.446Z,0.89
2022-12-11T13:39:47.557Z,0.83
2022-12-11T13:42:55.629Z,0.92
2022-12-11T13:45:29.832Z,0.88
2022-12-11T13:47:58.092Z,0.89
2022-12-11T13:50:29.908Z,0.90
2022-12-11T13:52:58.732Z,0.88
2022-12-11T13:55:31.406Z,0.87
2022-12-11T13:57:58.642Z,0.97
2022-12-11T14:00:28.427Z,0.89
2022-12-11T14:02:57.217Z,0.87
2022-12-11T14:05:24.413Z,0.99
2022-12-11T14:07:55.215Z,0.91
2022-12-11T14:10:27.255Z,0.80
2022-12-11T14:13:02.432Z,1.00
2022-12-11T14:15:31.386Z,0.91
2022-12-11T14:17:59.440Z,0.89
2022-12-11T14:20:32.692Z,0.88
2022-12-11T14:23:17.415Z,0.91
2022-12-11T14:25:53.327Z,0.88
2022-12-11T14:28:21.014Z,0.97
2022-12-11T14:30:51.768Z,0.86
2022-12-11T14:33:22.830Z,0.85
2022-12-11T14:35:50.747Z,0.97
2022-12-11T14:38:23.439Z,0.86
2022-12-11T14:40:55.225Z,0.98
2022-12-11T14:43:31.515Z,1.01
2022-12-11T14:46:07.407Z,0.88
2022-12-11T14:48:44.618Z,0.86
2022-12-11T14:51:14.343Z,0.99
2022-12-11T14:53:46.653Z,0.87
2022-12-11T14:56:23.895Z,0.87
2022-12-11T14:59:19.548Z,0.91
2022-12-11T15:01:56.608Z,0.86
2022-12-11T15:04:28.904Z,0.85
2022-12-11T15:06:55.946Z,0.84
2022-12-11T15:09:37.710Z,0.84
2022-12-11T15:12:12.549Z,0.95
2022-12-11T15:15:00.736Z,0.87
2022-12-11T15:17:30.679Z,0.80
2022-12-11T15:20:07.390Z,0.82
2022-12-11T15:22:35.541Z,0.82
2022-12-11T15:25:02.519Z,0.80
2022-12-11T15:27:39.680Z,0.93
2022-12-11T15:30:26.900Z,0.81
2022-12-11T15:33:03.718Z,0.80
2022-12-11T15:35:30.533Z,0.78
2022-12-11T15:37:58.364Z,0.75
2022-12-11T15:40:26.459Z,0.72
2022-12-11T15:42:54.896Z,0.86
2022-12-11T15:45:24.600Z,0.74
2022-12-11T15:47:52.207Z,0.83
2022-12-11T15:50:23.091Z,0.73
2022-12-11T15:52:50.767Z,0.70
2022-12-11T15:55:18.331Z,0.72
2022-12-11T15:57:52.116Z,0.82
2022-12-11T16:00:20.077Z,0.72
2022-12-11T16:02:46.981Z,0.71
2022-12-11T16:05:14.856Z,0.64
2022-12-11T16:07:41.946Z,0.70
2022-12-11T16:10:14.899Z,0.70
2022-12-11T16:12:42.769Z,0.82
2022-12-11T16:15:11.181Z,0.68
2022-12-11T16:17:38.561Z,0.76
2022-12-11T16:20:06.133Z,0.70
2022-12-11T16:22:32.654Z,0.68
2022-12-11T16:24:59.261Z,0.67
2022-12-11T16:27:25.809Z,0.68
2022-12-11T16:29:52.423Z,0.67
2022-12-11T16:32:19.918Z,0.68
2022-12-11T16:34:46.976Z,0.66
2022-12-11T16:37:14.122Z,0.65
2022-12-11T16:39:42.443Z,0.67
2022-12-11T16:42:08.947Z,0.67
2022-12-11T16:44:39.542Z,0.68
2022-12-11T16:47:09.020Z,0.68
2022-12-11T16:49:35.517Z,0.69
2022-12-11T16:52:02.056Z,0.71
2022-12-11T16:54:28.607Z,0.68
2022-12-11T16:56:55.163Z,0.67
2022-12-11T16:59:21.696Z,0.69
2022-12-11T17:01:50.391Z,0.66
2022-12-11T17:04:17.081Z,0.79
2022-12-11T17:06:43.649Z,0.69
2022-12-11T17:09:11.220Z,0.67
2022-12-11T17:11:37.747Z,0.68
2022-12-11T17:14:04.258Z,0.67
2022-12-11T17:16:31.355Z,0.79
2022-12-11T17:18:58.154Z,0.68
2022-12-11T17:21:24.796Z,0.67
2022-12-11T17:23:51.948Z,0.63
2022-12-11T17:26:18.811Z,0.62
2022-12-11T17:28:45.397Z,0.65
2022-12-11T17:31:15.560Z,0.65
2022-12-11T17:33:42.628Z,0.59
2022-12-11T17:36:12.213Z,0.63
2022-12-11T17:38:38.904Z,0.62
2022-12-11T17:41:08.922Z,0.63
2022-12-11T17:43:35.425Z,0.76
2022-12-11T17:46:02.209Z,0.78
2022-12-11T17:48:28.839Z,0.65
2022-12-11T17:50:55.447Z,0.67
2022-12-11T17:53:23.352Z,0.64
2022-12-11T17:55:51.688Z,0.59
2022-12-11T17:58:21.628Z,0.60
2022-12-11T18:00:51.513Z,0.61
2022-12-11T18:03:18.569Z,0.61
2022-12-11T18:05:47.519Z,0.58
2022-12-11T18:08:15.650Z,0.74
2022-12-11T18:10:42.625Z,0.63
2022-12-11T18:13:09.799Z,0.63
2022-12-11T18:15:36.490Z,0.61
2022-12-11T18:18:03.827Z,0.70
2022-12-11T18:20:31.551Z,0.60
2022-12-11T18:22:58.555Z,0.60
2022-12-11T18:25:25.330Z,0.58
2022-12-11T18:27:52.123Z,0.58
2022-12-11T18:30:18.679Z,0.60
2022-12-11T18:32:45.281Z,0.57
2022-12-11T18:35:12.251Z,0.57
2022-12-11T18:37:39.296Z,0.54
2022-12-11T18:40:07.137Z,0.72
2022-12-11T18:42:34.057Z,0.59
2022-12-11T18:45:01.461Z,0.59
2022-12-11T18:47:28.072Z,0.60
2022-12-11T18:49:54.597Z,0.58
2022-12-11T18:52:21.115Z,0.58
2022-12-11T18:54:47.670Z,0.58
2022-12-11T18:57:16.080Z,0.57
2022-12-11T18:59:42.658Z,0.54
2022-12-11T19:02:11.269Z,0.52
2022-12-11T19:04:37.817Z,0.55
2022-12-11T19:07:04.435Z,0.45
2022-12-11T19:09:35.420Z,0.65
2022-12-11T19:12:05.097Z,0.67
2022-12-11T19:14:31.625Z,0.51
2022-12-11T19:16:58.293Z,0.51
2022-12-11T19:19:24.927Z,0.52
2022-12-11T19:21:51.594Z,0.52
2022-12-11T19:24:21.806Z,0.52
2022-12-11T19:26:48.410Z,0.63
2022-12-11T19:29:32.362Z,0.50
2022-12-11T19:32:01.252Z,0.51
2022-12-11T19:34:27.773Z,0.52
2022-12-11T19:36:54.343Z,0.52
2022-12-11T19:39:20.868Z,0.52
2022-12-11T19:41:47.758Z,0.44
2022-12-11T19:44:14.259Z,0.51
2022-12-11T19:46:41.106Z,0.63
2022-12-11T19:49:08.478Z,0.65
2022-12-11T19:51:41.053Z,0.69
2022-12-11T19:54:11.242Z,0.57
2022-12-11T19:56:38.080Z,0.55
2022-12-11T19:59:07.226Z,0.54
2022-12-11T20:01:36.568Z,0.53
2022-12-11T20:04:14.451Z,0.48
2022-12-11T20:06:43.959Z,0.49
2022-12-11T20:09:12.177Z,0.57
2022-12-11T20:11:40.943Z,0.66
2022-12-11T20:14:07.744Z,0.52
2022-12-11T20:17:02.220Z,0.51
2022-12-11T20:19:20.922Z,0.52
2022-12-11T20:21:47.990Z,0.52
2022-12-11T20:24:14.554Z,0.51
2022-12-11T20:26:41.137Z,0.51
2022-12-11T20:29:08.304Z,0.48
2022-12-11T20:31:36.549Z,0.49
2022-12-11T20:34:04.303Z,0.47
2022-12-11T20:36:31.040Z,0.61
2022-12-11T20:38:57.696Z,0.50
2022-12-11T20:41:25.601Z,0.63
2022-12-11T20:43:55.484Z,0.51
2022-12-11T20:46:25.198Z,0.45
2022-12-11T20:48:52.437Z,0.59
2022-12-11T20:51:25.685Z,0.49
2022-12-11T20:54:01.141Z,0.42
2022-12-11T20:56:30.502Z,0.52
2022-12-11T20:58:58.817Z,0.47
2022-12-11T21:01:28.069Z,0.48
2022-12-11T21:03:54.720Z,0.45
2022-12-11T21:06:31.140Z,0.44
2022-12-11T21:08:59.595Z,0.43
2022-12-11T21:11:26.199Z,0.55
2022-12-11T21:13:52.910Z,0.44
2022-12-11T21:16:20.139Z,0.42
2022-12-11T21:18:46.987Z,0.42
2022-12-11T21:21:14.030Z,0.44
2022-12-11T21:23:40.708Z,0.54
2022-12-11T21:26:07.249Z,0.58
2022-12-11T21:28:35.745Z,0.44
2022-12-11T21:31:05.244Z,0.57
2022-12-11T21:33:31.878Z,0.36
2022-12-11T21:35:59.856Z,0.40
2022-12-11T21:38:27.153Z,0.40
2022-12-11T21:40:54.490Z,0.56
2022-12-11T21:43:21.427Z,0.45
2022-12-11T21:46:04.041Z,0.38
2022-12-11T21:48:31.019Z,0.45
2022-12-11T21:51:16.570Z,0.42
2022-12-11T21:53:43.664Z,0.44
2022-12-11T21:56:12.986Z,0.56
2022-12-11T21:58:41.263Z,0.42
2022-12-11T22:01:37.054Z,0.44
2022-12-11T22:04:04.919Z,0.42
2022-12-11T22:06:31.817Z,0.54
2022-12-11T22:08:58.368Z,0.42
2022-12-11T22:11:28.940Z,0.55
2022-12-11T22:13:56.361Z,0.42
2022-12-11T22:16:23.138Z,0.39
2022-12-11T22:18:50.360Z,0.52
2022-12-11T22:21:17.100Z,0.39
2022-12-11T22:23:44.566Z,0.38
2022-12-11T22:26:23.240Z,0.41
2022-12-11T22:28:50.787Z,0.35
2022-12-11T22:31:20.554Z,0.50
2022-12-11T22:33:50.797Z,0.34
2022-12-11T22:36:20.099Z,0.38
2022-12-11T22:38:47.346Z,0.32
2022-12-11T22:41:24.424Z,0.36
2022-12-11T22:43:51.618Z,0.35
2022-12-11T22:46:20.786Z,0.31
2022-12-11T22:48:47.654Z,0.33
2022-12-11T22:51:14.568Z,0.32
2022-12-11T22:53:41.080Z,0.34
2022-12-11T22:56:09.527Z,0.47
2022-12-11T22:58:36.362Z,0.35
2022-12-11T23:01:07.638Z,0.47
2022-12-11T23:03:34.237Z,0.20
2022-12-11T23:06:05.036Z,0.32
2022-12-11T23:08:31.966Z,0.35
2022-12-11T23:10:58.778Z,0.29
2022-12-11T23:13:25.282Z,0.31
2022-12-11T23:15:51.841Z,0.26
2022-12-11T23:18:18.392Z,0.32
2022-12-11T23:20:44.899Z,0.27
2022-12-11T23:23:11.430Z,0.27
2022-12-11T23:25:38.027Z,0.25
2022-12-11T23:28:04.654Z,0.26
2022-12-11T23:30:31.294Z,0.24
2022-12-11T23:32:57.898Z,0.39
2022-12-11T23:35:24.401Z,0.27
2022-12-11T23:37:50.918Z,0.25
2022-12-11T23:40:17.671Z,0.24
2022-12-11T23:42:44.200Z,0.26
2022-12-11T23:45:11.069Z,0.39
2022-12-11T23:47:37.907Z,0.41
2022-12-11T23:50:04.743Z,0.26
2022-12-11T23:52:31.302Z,0.23
2022-12-11T23:54:57.793Z,0.19
2022-12-11T23:57:24.349Z,0.20
2022-12-11T23:59:50.826Z,0.17
